sensor_id;sensor_type;location;lat;lon;timestamp;temperature;humidity
30379;DHT22;17168;49.164;9.060;2023-02-28T00:01:44;2.40;53.90
30379;DHT22;17168;49.164;9.060;2023-02-28T00:04:16;2.40;54.00
30379;DHT22;17168;49.164;9.060;2023-02-28T00:06:48;2.40;54.20
30379;DHT22;17168;49.164;9.060;2023-02-28T00:09:20;2.30;54.20
30379;DHT22;17168;49.164;9.060;2023-02-28T00:11:54;2.30;54.20
30379;DHT22;17168;49.164;9.060;2023-02-28T00:14:26;2.30;54.30
30379;DHT22;17168;49.164;9.060;2023-02-28T00:16:58;2.20;54.50
30379;DHT22;17168;49.164;9.060;2023-02-28T00:19:30;2.20;54.60
30379;DHT22;17168;49.164;9.060;2023-02-28T00:22:01;2.20;54.70
30379;DHT22;17168;49.164;9.060;2023-02-28T00:24:33;2.20;54.80
30379;DHT22;17168;49.164;9.060;2023-02-28T00:27:08;2.10;54.90
30379;DHT22;17168;49.164;9.060;2023-02-28T00:29:39;2.10;55.00
30379;DHT22;17168;49.164;9.060;2023-02-28T00:32:11;2.10;55.20
30379;DHT22;17168;49.164;9.060;2023-02-28T00:34:43;2.10;55.30
30379;DHT22;17168;49.164;9.060;2023-02-28T00:37:15;2.10;55.50
30379;DHT22;17168;49.164;9.060;2023-02-28T00:39:47;2.00;55.60
30379;DHT22;17168;49.164;9.060;2023-02-28T00:42:21;2.00;55.60
30379;DHT22;17168;49.164;9.060;2023-02-28T00:44:53;2.00;55.70
30379;DHT22;17168;49.164;9.060;2023-02-28T00:47:25;2.00;55.80
30379;DHT22;17168;49.164;9.060;2023-02-28T00:49:57;2.00;55.80
30379;DHT22;17168;49.164;9.060;2023-02-28T00:52:29;1.90;55.80
30379;DHT22;17168;49.164;9.060;2023-02-28T00:55:01;1.90;55.90
30379;DHT22;17168;49.164;9.060;2023-02-28T00:57:36;1.90;56.00
30379;DHT22;17168;49.164;9.060;2023-02-28T01:00:08;1.90;56.20
30379;DHT22;17168;49.164;9.060;2023-02-28T01:02:40;1.80;56.30
30379;DHT22;17168;49.164;9.060;2023-02-28T01:05:12;1.80;56.40
30379;DHT22;17168;49.164;9.060;2023-02-28T01:07:44;1.80;56.50
30379;DHT22;17168;49.164;9.060;2023-02-28T01:10:16;1.80;56.70
30379;DHT22;17168;49.164;9.060;2023-02-28T01:12:50;1.80;56.80
30379;DHT22;17168;49.164;9.060;2023-02-28T01:15:22;1.80;56.90
30379;DHT22;17168;49.164;9.060;2023-02-28T01:17:54;1.80;56.90
30379;DHT22;17168;49.164;9.060;2023-02-28T01:20:26;1.70;57.00
30379;DHT22;17168;49.164;9.060;2023-02-28T01:22:57;1.70;57.00
30379;DHT22;17168;49.164;9.060;2023-02-28T01:25:29;1.70;57.10
30379;DHT22;17168;49.164;9.060;2023-02-28T01:28:04;1.70;57.20
30379;DHT22;17168;49.164;9.060;2023-02-28T01:30:37;1.70;57.40
30379;DHT22;17168;49.164;9.060;2023-02-28T01:33:09;1.70;57.40
30379;DHT22;17168;49.164;9.060;2023-02-28T01:35:41;1.70;57.50
30379;DHT22;17168;49.164;9.060;2023-02-28T01:38:13;1.60;57.50
30379;DHT22;17168;49.164;9.060;2023-02-28T01:40:53;1.60;57.60
30379;DHT22;17168;49.164;9.060;2023-02-28T01:43:28;1.60;57.70
30379;DHT22;17168;49.164;9.060;2023-02-28T01:46:00;1.60;57.80
30379;DHT22;17168;49.164;9.060;2023-02-28T01:48:33;1.50;57.80
30379;DHT22;17168;49.164;9.060;2023-02-28T01:51:08;1.50;57.90
30379;DHT22;17168;49.164;9.060;2023-02-28T01:53:41;1.50;58.00
30379;DHT22;17168;49.164;9.060;2023-02-28T01:56:15;1.50;58.10
30379;DHT22;17168;49.164;9.060;2023-02-28T01:58:54;1.50;58.20
30379;DHT22;17168;49.164;9.060;2023-02-28T02:01:27;1.50;58.80
30379;DHT22;17168;49.164;9.060;2023-02-28T02:04:01;1.40;58.30
30379;DHT22;17168;49.164;9.060;2023-02-28T02:06:35;1.40;58.40
30379;DHT22;17168;49.164;9.060;2023-02-28T02:09:07;1.40;58.40
30379;DHT22;17168;49.164;9.060;2023-02-28T02:11:39;1.40;58.50
30379;DHT22;17168;49.164;9.060;2023-02-28T02:17:04;1.40;58.70
30379;DHT22;17168;49.164;9.060;2023-02-28T02:22:40;1.30;58.90
30379;DHT22;17168;49.164;9.060;2023-02-28T02:25:18;1.30;59.00
30379;DHT22;17168;49.164;9.060;2023-02-28T02:28:00;1.30;59.10
30379;DHT22;17168;49.164;9.060;2023-02-28T02:30:42;1.30;59.20
30379;DHT22;17168;49.164;9.060;2023-02-28T02:33:25;1.20;59.20
30379;DHT22;17168;49.164;9.060;2023-02-28T02:36:02;1.20;59.20
30379;DHT22;17168;49.164;9.060;2023-02-28T02:38:37;1.20;59.20
30379;DHT22;17168;49.164;9.060;2023-02-28T02:41:12;1.20;59.30
30379;DHT22;17168;49.164;9.060;2023-02-28T02:43:47;1.10;59.40
30379;DHT22;17168;49.164;9.060;2023-02-28T02:46:20;1.10;59.50
30379;DHT22;17168;49.164;9.060;2023-02-28T02:48:52;1.10;59.60
30379;DHT22;17168;49.164;9.060;2023-02-28T02:51:29;1.10;59.70
30379;DHT22;17168;49.164;9.060;2023-02-28T02:54:03;1.10;59.80
30379;DHT22;17168;49.164;9.060;2023-02-28T02:56:36;1.10;59.80
30379;DHT22;17168;49.164;9.060;2023-02-28T02:59:11;1.10;59.90
30379;DHT22;17168;49.164;9.060;2023-02-28T03:01:44;1.00;59.90
30379;DHT22;17168;49.164;9.060;2023-02-28T03:04:16;1.00;60.00
30379;DHT22;17168;49.164;9.060;2023-02-28T03:06:52;1.00;60.00
30379;DHT22;17168;49.164;9.060;2023-02-28T03:09:27;1.00;60.10
30379;DHT22;17168;49.164;9.060;2023-02-28T03:11:59;1.00;60.10
30379;DHT22;17168;49.164;9.060;2023-02-28T03:14:34;1.00;60.20
30379;DHT22;17168;49.164;9.060;2023-02-28T03:17:18;1.00;60.20
30379;DHT22;17168;49.164;9.060;2023-02-28T03:19:54;1.00;60.20
30379;DHT22;17168;49.164;9.060;2023-02-28T03:22:36;0.90;60.30
30379;DHT22;17168;49.164;9.060;2023-02-28T03:25:12;0.90;60.40
30379;DHT22;17168;49.164;9.060;2023-02-28T03:27:49;0.90;60.50
30379;DHT22;17168;49.164;9.060;2023-02-28T03:30:26;0.90;60.60
30379;DHT22;17168;49.164;9.060;2023-02-28T03:33:01;0.90;60.60
30379;DHT22;17168;49.164;9.060;2023-02-28T03:35:37;0.90;60.70
30379;DHT22;17168;49.164;9.060;2023-02-28T03:38:13;0.90;60.70
30379;DHT22;17168;49.164;9.060;2023-02-28T03:40:47;0.90;60.70
30379;DHT22;17168;49.164;9.060;2023-02-28T03:43:21;0.90;60.90
30379;DHT22;17168;49.164;9.060;2023-02-28T03:45:54;0.90;61.00
30379;DHT22;17168;49.164;9.060;2023-02-28T03:48:27;0.90;61.00
30379;DHT22;17168;49.164;9.060;2023-02-28T03:51:03;0.90;61.00
30379;DHT22;17168;49.164;9.060;2023-02-28T03:53:41;1.00;61.20
30379;DHT22;17168;49.164;9.060;2023-02-28T03:56:15;1.00;61.20
30379;DHT22;17168;49.164;9.060;2023-02-28T03:58:49;1.00;61.30
30379;DHT22;17168;49.164;9.060;2023-02-28T04:01:24;1.00;61.30
30379;DHT22;17168;49.164;9.060;2023-02-28T04:03:58;1.00;61.30
30379;DHT22;17168;49.164;9.060;2023-02-28T04:06:30;1.00;61.40
30379;DHT22;17168;49.164;9.060;2023-02-28T04:09:06;1.10;61.40
30379;DHT22;17168;49.164;9.060;2023-02-28T04:11:38;1.10;61.50
30379;DHT22;17168;49.164;9.060;2023-02-28T04:14:11;1.10;61.50
30379;DHT22;17168;49.164;9.060;2023-02-28T04:16:43;1.10;61.60
30379;DHT22;17168;49.164;9.060;2023-02-28T04:19:15;1.10;61.70
30379;DHT22;17168;49.164;9.060;2023-02-28T04:21:48;1.10;61.80
30379;DHT22;17168;49.164;9.060;2023-02-28T04:24:23;1.10;61.80
30379;DHT22;17168;49.164;9.060;2023-02-28T04:26:56;1.10;61.80
30379;DHT22;17168;49.164;9.060;2023-02-28T04:29:29;1.10;61.80
30379;DHT22;17168;49.164;9.060;2023-02-28T04:32:01;1.20;61.80
30379;DHT22;17168;49.164;9.060;2023-02-28T04:34:33;1.20;61.80
30379;DHT22;17168;49.164;9.060;2023-02-28T04:37:05;1.20;61.80
30379;DHT22;17168;49.164;9.060;2023-02-28T04:39:47;1.20;61.70
30379;DHT22;17168;49.164;9.060;2023-02-28T04:42:18;1.20;61.80
30379;DHT22;17168;49.164;9.060;2023-02-28T04:44:50;1.20;61.80
30379;DHT22;17168;49.164;9.060;2023-02-28T04:47:22;1.20;61.80
30379;DHT22;17168;49.164;9.060;2023-02-28T04:49:54;1.20;61.90
30379;DHT22;17168;49.164;9.060;2023-02-28T04:52:27;1.30;61.90
30379;DHT22;17168;49.164;9.060;2023-02-28T04:55:01;1.30;61.90
30379;DHT22;17168;49.164;9.060;2023-02-28T04:57:33;1.30;61.90
30379;DHT22;17168;49.164;9.060;2023-02-28T05:00:05;1.30;61.90
30379;DHT22;17168;49.164;9.060;2023-02-28T05:02:43;1.30;61.90
30379;DHT22;17168;49.164;9.060;2023-02-28T05:05:14;1.40;61.90
30379;DHT22;17168;49.164;9.060;2023-02-28T05:07:49;1.40;62.00
30379;DHT22;17168;49.164;9.060;2023-02-28T05:10:24;1.40;62.00
30379;DHT22;17168;49.164;9.060;2023-02-28T05:12:55;1.40;62.10
30379;DHT22;17168;49.164;9.060;2023-02-28T05:15:27;1.40;62.10
30379;DHT22;17168;49.164;9.060;2023-02-28T05:18:01;1.40;62.10
30379;DHT22;17168;49.164;9.060;2023-02-28T05:20:33;1.40;62.20
30379;DHT22;17168;49.164;9.060;2023-02-28T05:23:05;1.40;62.10
30379;DHT22;17168;49.164;9.060;2023-02-28T05:25:41;1.40;62.20
30379;DHT22;17168;49.164;9.060;2023-02-28T05:28:13;1.40;62.20
30379;DHT22;17168;49.164;9.060;2023-02-28T05:30:45;1.40;62.20
30379;DHT22;17168;49.164;9.060;2023-02-28T05:33:17;1.40;62.20
30379;DHT22;17168;49.164;9.060;2023-02-28T05:35:49;1.40;62.30
30379;DHT22;17168;49.164;9.060;2023-02-28T05:38:21;1.40;62.70
30379;DHT22;17168;49.164;9.060;2023-02-28T05:40:55;1.40;62.30
30379;DHT22;17168;49.164;9.060;2023-02-28T05:43:27;1.40;62.30
30379;DHT22;17168;49.164;9.060;2023-02-28T05:46:01;1.40;62.30
30379;DHT22;17168;49.164;9.060;2023-02-28T05:48:34;1.40;62.30
30379;DHT22;17168;49.164;9.060;2023-02-28T05:51:07;1.40;62.40
30379;DHT22;17168;49.164;9.060;2023-02-28T05:53:39;1.40;62.50
30379;DHT22;17168;49.164;9.060;2023-02-28T05:56:13;1.40;62.40
30379;DHT22;17168;49.164;9.060;2023-02-28T05:58:45;1.40;62.50
30379;DHT22;17168;49.164;9.060;2023-02-28T06:01:24;1.40;62.50
30379;DHT22;17168;49.164;9.060;2023-02-28T06:03:57;1.40;62.60
30379;DHT22;17168;49.164;9.060;2023-02-28T06:06:29;1.40;62.60
30379;DHT22;17168;49.164;9.060;2023-02-28T06:09:01;1.40;62.60
30379;DHT22;17168;49.164;9.060;2023-02-28T06:11:35;1.40;62.60
30379;DHT22;17168;49.164;9.060;2023-02-28T06:14:07;1.40;62.70
30379;DHT22;17168;49.164;9.060;2023-02-28T06:16:44;1.40;62.70
30379;DHT22;17168;49.164;9.060;2023-02-28T06:19:16;1.40;62.70
30379;DHT22;17168;49.164;9.060;2023-02-28T06:21:48;1.40;62.70
30379;DHT22;17168;49.164;9.060;2023-02-28T06:24:20;1.40;62.80
30379;DHT22;17168;49.164;9.060;2023-02-28T06:26:55;1.40;62.80
30379;DHT22;17168;49.164;9.060;2023-02-28T06:29:27;1.40;62.70
30379;DHT22;17168;49.164;9.060;2023-02-28T06:31:59;1.40;62.70
30379;DHT22;17168;49.164;9.060;2023-02-28T06:34:31;1.40;62.80
30379;DHT22;17168;49.164;9.060;2023-02-28T06:37:03;1.40;62.80
30379;DHT22;17168;49.164;9.060;2023-02-28T06:39:34;1.40;62.90
30379;DHT22;17168;49.164;9.060;2023-02-28T06:42:09;1.30;62.90
30379;DHT22;17168;49.164;9.060;2023-02-28T06:44:41;1.30;62.90
30379;DHT22;17168;49.164;9.060;2023-02-28T06:47:14;1.30;62.90
30379;DHT22;17168;49.164;9.060;2023-02-28T06:49:46;1.30;63.40
30379;DHT22;17168;49.164;9.060;2023-02-28T06:52:18;1.30;63.00
30379;DHT22;17168;49.164;9.060;2023-02-28T06:54:49;1.30;63.00
30379;DHT22;17168;49.164;9.060;2023-02-28T06:57:34;1.30;63.00
30379;DHT22;17168;49.164;9.060;2023-02-28T07:00:07;1.30;63.00
30379;DHT22;17168;49.164;9.060;2023-02-28T07:02:39;1.30;63.10
30379;DHT22;17168;49.164;9.060;2023-02-28T07:05:11;1.30;63.10
30379;DHT22;17168;49.164;9.060;2023-02-28T07:07:43;1.30;63.10
30379;DHT22;17168;49.164;9.060;2023-02-28T07:10:18;1.30;63.10
30379;DHT22;17168;49.164;9.060;2023-02-28T07:12:53;1.30;63.10
30379;DHT22;17168;49.164;9.060;2023-02-28T07:15:25;1.30;63.20
30379;DHT22;17168;49.164;9.060;2023-02-28T07:17:57;1.30;63.20
30379;DHT22;17168;49.164;9.060;2023-02-28T07:20:29;1.30;63.20
30379;DHT22;17168;49.164;9.060;2023-02-28T07:23:01;1.30;63.30
30379;DHT22;17168;49.164;9.060;2023-02-28T07:25:33;1.30;63.40
30379;DHT22;17168;49.164;9.060;2023-02-28T07:28:07;1.40;63.40
30379;DHT22;17168;49.164;9.060;2023-02-28T07:30:39;1.30;63.40
30379;DHT22;17168;49.164;9.060;2023-02-28T07:33:11;1.30;63.50
30379;DHT22;17168;49.164;9.060;2023-02-28T07:35:43;1.30;63.50
30379;DHT22;17168;49.164;9.060;2023-02-28T07:38:15;1.30;63.60
30379;DHT22;17168;49.164;9.060;2023-02-28T07:40:47;1.30;63.60
30379;DHT22;17168;49.164;9.060;2023-02-28T07:43:21;1.30;63.70
30379;DHT22;17168;49.164;9.060;2023-02-28T07:45:53;1.40;63.70
30379;DHT22;17168;49.164;9.060;2023-02-28T07:48:27;1.40;63.80
30379;DHT22;17168;49.164;9.060;2023-02-28T07:50:59;1.40;63.80
30379;DHT22;17168;49.164;9.060;2023-02-28T07:53:31;1.40;63.80
30379;DHT22;17168;49.164;9.060;2023-02-28T07:56:03;1.40;63.80
30379;DHT22;17168;49.164;9.060;2023-02-28T07:58:38;1.50;63.90
30379;DHT22;17168;49.164;9.060;2023-02-28T08:01:10;1.50;63.90
30379;DHT22;17168;49.164;9.060;2023-02-28T08:03:42;1.50;63.90
30379;DHT22;17168;49.164;9.060;2023-02-28T08:06:17;1.50;63.90
30379;DHT22;17168;49.164;9.060;2023-02-28T08:08:49;1.60;64.00
30379;DHT22;17168;49.164;9.060;2023-02-28T08:11:21;1.60;64.00
30379;DHT22;17168;49.164;9.060;2023-02-28T08:13:56;1.60;64.00
30379;DHT22;17168;49.164;9.060;2023-02-28T08:16:28;1.60;64.00
30379;DHT22;17168;49.164;9.060;2023-02-28T08:19:00;1.70;64.00
30379;DHT22;17168;49.164;9.060;2023-02-28T08:21:31;1.70;64.00
30379;DHT22;17168;49.164;9.060;2023-02-28T08:24:04;1.70;64.10
30379;DHT22;17168;49.164;9.060;2023-02-28T08:26:36;1.70;64.10
30379;DHT22;17168;49.164;9.060;2023-02-28T08:29:11;1.70;64.10
30379;DHT22;17168;49.164;9.060;2023-02-28T08:31:42;1.80;64.20
30379;DHT22;17168;49.164;9.060;2023-02-28T08:34:15;1.80;64.20
30379;DHT22;17168;49.164;9.060;2023-02-28T08:36:47;1.80;64.20
30379;DHT22;17168;49.164;9.060;2023-02-28T08:39:18;1.90;64.80
30379;DHT22;17168;49.164;9.060;2023-02-28T08:41:51;1.90;64.30
30379;DHT22;17168;49.164;9.060;2023-02-28T08:44:39;1.90;64.20
30379;DHT22;17168;49.164;9.060;2023-02-28T08:47:12;2.00;64.30
30379;DHT22;17168;49.164;9.060;2023-02-28T08:49:44;2.00;64.30
30379;DHT22;17168;49.164;9.060;2023-02-28T08:52:16;2.00;64.30
30379;DHT22;17168;49.164;9.060;2023-02-28T08:54:47;2.10;64.30
30379;DHT22;17168;49.164;9.060;2023-02-28T08:57:19;2.10;64.30
30379;DHT22;17168;49.164;9.060;2023-02-28T08:59:54;2.20;64.30
30379;DHT22;17168;49.164;9.060;2023-02-28T09:02:25;2.20;64.30
30379;DHT22;17168;49.164;9.060;2023-02-28T09:04:57;2.30;64.30
30379;DHT22;17168;49.164;9.060;2023-02-28T09:07:29;2.30;64.30
30379;DHT22;17168;49.164;9.060;2023-02-28T09:10:01;2.40;64.90
30379;DHT22;17168;49.164;9.060;2023-02-28T09:12:34;2.40;64.30
30379;DHT22;17168;49.164;9.060;2023-02-28T09:15:10;2.50;64.40
30379;DHT22;17168;49.164;9.060;2023-02-28T09:17:42;2.50;64.40
30379;DHT22;17168;49.164;9.060;2023-02-28T09:20:18;2.60;64.30
30379;DHT22;17168;49.164;9.060;2023-02-28T09:22:50;2.60;64.30
30379;DHT22;17168;49.164;9.060;2023-02-28T09:25:22;2.70;64.30
30379;DHT22;17168;49.164;9.060;2023-02-28T09:27:53;2.70;64.30
30379;DHT22;17168;49.164;9.060;2023-02-28T09:30:28;2.80;64.30
30379;DHT22;17168;49.164;9.060;2023-02-28T09:33:00;2.80;64.20
30379;DHT22;17168;49.164;9.060;2023-02-28T09:35:32;2.90;64.30
30379;DHT22;17168;49.164;9.060;2023-02-28T09:38:05;2.90;64.30
30379;DHT22;17168;49.164;9.060;2023-02-28T09:40:39;3.00;64.30
30379;DHT22;17168;49.164;9.060;2023-02-28T09:43:14;3.00;64.20
30379;DHT22;17168;49.164;9.060;2023-02-28T09:45:52;3.10;64.30
30379;DHT22;17168;49.164;9.060;2023-02-28T09:48:35;3.20;64.20
30379;DHT22;17168;49.164;9.060;2023-02-28T09:51:14;3.30;64.20
30379;DHT22;17168;49.164;9.060;2023-02-28T09:53:47;3.30;64.10
30379;DHT22;17168;49.164;9.060;2023-02-28T09:56:28;3.30;64.00
30379;DHT22;17168;49.164;9.060;2023-02-28T09:59:04;3.40;64.00
30379;DHT22;17168;49.164;9.060;2023-02-28T10:01:49;3.50;64.00
30379;DHT22;17168;49.164;9.060;2023-02-28T10:04:28;3.50;63.90
30379;DHT22;17168;49.164;9.060;2023-02-28T10:07:06;3.60;63.90
30379;DHT22;17168;49.164;9.060;2023-02-28T10:09:54;3.60;63.80
30379;DHT22;17168;49.164;9.060;2023-02-28T10:12:29;3.70;63.80
30379;DHT22;17168;49.164;9.060;2023-02-28T10:15:04;3.80;63.80
30379;DHT22;17168;49.164;9.060;2023-02-28T10:17:40;3.80;63.70
30379;DHT22;17168;49.164;9.060;2023-02-28T10:20:27;3.90;63.70
30379;DHT22;17168;49.164;9.060;2023-02-28T10:23:08;3.90;63.60
30379;DHT22;17168;49.164;9.060;2023-02-28T10:25:43;4.00;63.60
30379;DHT22;17168;49.164;9.060;2023-02-28T10:28:25;4.10;63.60
30379;DHT22;17168;49.164;9.060;2023-02-28T10:30:57;4.10;63.50
30379;DHT22;17168;49.164;9.060;2023-02-28T10:33:34;4.20;63.50
30379;DHT22;17168;49.164;9.060;2023-02-28T10:36:08;4.30;63.50
30379;DHT22;17168;49.164;9.060;2023-02-28T10:38:44;4.30;63.40
30379;DHT22;17168;49.164;9.060;2023-02-28T10:41:27;4.40;63.30
30379;DHT22;17168;49.164;9.060;2023-02-28T10:44:14;4.50;63.30
30379;DHT22;17168;49.164;9.060;2023-02-28T10:46:48;4.60;63.20
30379;DHT22;17168;49.164;9.060;2023-02-28T10:49:24;4.60;63.10
30379;DHT22;17168;49.164;9.060;2023-02-28T10:51:59;4.70;63.00
30379;DHT22;17168;49.164;9.060;2023-02-28T10:54:33;4.80;62.90
30379;DHT22;17168;49.164;9.060;2023-02-28T10:57:14;4.90;62.80
30379;DHT22;17168;49.164;9.060;2023-02-28T10:59:50;4.90;62.70
30379;DHT22;17168;49.164;9.060;2023-02-28T11:02:32;5.00;62.60
30379;DHT22;17168;49.164;9.060;2023-02-28T11:05:29;5.00;62.50
30379;DHT22;17168;49.164;9.060;2023-02-28T11:08:06;5.10;62.40
30379;DHT22;17168;49.164;9.060;2023-02-28T11:10:44;5.20;62.30
30379;DHT22;17168;49.164;9.060;2023-02-28T11:13:17;5.30;62.70
30379;DHT22;17168;49.164;9.060;2023-02-28T11:15:51;5.30;62.10
30379;DHT22;17168;49.164;9.060;2023-02-28T11:18:26;5.30;62.40
30379;DHT22;17168;49.164;9.060;2023-02-28T11:21:02;5.40;61.90
30379;DHT22;17168;49.164;9.060;2023-02-28T11:23:35;5.50;61.90
30379;DHT22;17168;49.164;9.060;2023-02-28T11:26:08;5.60;61.70
30379;DHT22;17168;49.164;9.060;2023-02-28T11:28:43;5.70;61.80
30379;DHT22;17168;49.164;9.060;2023-02-28T11:31:18;5.80;61.60
30379;DHT22;17168;49.164;9.060;2023-02-28T11:33:51;5.80;61.40
30379;DHT22;17168;49.164;9.060;2023-02-28T11:36:28;6.00;61.40
30379;DHT22;17168;49.164;9.060;2023-02-28T11:39:09;6.10;61.30
30379;DHT22;17168;49.164;9.060;2023-02-28T11:41:47;6.20;61.20
30379;DHT22;17168;49.164;9.060;2023-02-28T11:44:28;6.30;61.20
30379;DHT22;17168;49.164;9.060;2023-02-28T11:47:04;6.40;61.10
30379;DHT22;17168;49.164;9.060;2023-02-28T11:49:40;6.50;61.00
30379;DHT22;17168;49.164;9.060;2023-02-28T11:52:24;6.60;61.10
30379;DHT22;17168;49.164;9.060;2023-02-28T11:55:03;6.80;61.10
30379;DHT22;17168;49.164;9.060;2023-02-28T11:57:53;7.00;61.10
30379;DHT22;17168;49.164;9.060;2023-02-28T12:00:30;7.10;61.00
30379;DHT22;17168;49.164;9.060;2023-02-28T12:03:15;7.40;61.10
30379;DHT22;17168;49.164;9.060;2023-02-28T12:05:53;7.70;61.20
30379;DHT22;17168;49.164;9.060;2023-02-28T12:08:43;8.00;60.90
30379;DHT22;17168;49.164;9.060;2023-02-28T12:11:24;8.30;60.90
30379;DHT22;17168;49.164;9.060;2023-02-28T12:14:03;8.70;61.00
30379;DHT22;17168;49.164;9.060;2023-02-28T12:16:52;9.10;60.40
30379;DHT22;17168;49.164;9.060;2023-02-28T12:19:37;9.50;59.80
30379;DHT22;17168;49.164;9.060;2023-02-28T12:22:20;9.70;59.30
30379;DHT22;17168;49.164;9.060;2023-02-28T12:25:27;9.90;59.00
30379;DHT22;17168;49.164;9.060;2023-02-28T12:28:08;9.80;58.00
30379;DHT22;17168;49.164;9.060;2023-02-28T12:30:47;9.70;57.90
30379;DHT22;17168;49.164;9.060;2023-02-28T12:33:24;9.50;57.70
30379;DHT22;17168;49.164;9.060;2023-02-28T12:35:59;9.40;57.70
30379;DHT22;17168;49.164;9.060;2023-02-28T12:38:37;9.30;57.60
30379;DHT22;17168;49.164;9.060;2023-02-28T12:41:17;9.30;57.70
30379;DHT22;17168;49.164;9.060;2023-02-28T12:43:55;9.30;57.50
30379;DHT22;17168;49.164;9.060;2023-02-28T12:46:33;9.40;57.40
30379;DHT22;17168;49.164;9.060;2023-02-28T12:49:09;9.50;57.20
30379;DHT22;17168;49.164;9.060;2023-02-28T12:51:49;9.60;57.20
30379;DHT22;17168;49.164;9.060;2023-02-28T12:54:32;9.80;57.10
30379;DHT22;17168;49.164;9.060;2023-02-28T12:57:15;9.90;56.90
30379;DHT22;17168;49.164;9.060;2023-02-28T12:59:51;9.90;56.50
30379;DHT22;17168;49.164;9.060;2023-02-28T13:06:03;10.20;56.30
30379;DHT22;17168;49.164;9.060;2023-02-28T13:09:01;10.20;55.90
30379;DHT22;17168;49.164;9.060;2023-02-28T13:11:39;10.20;55.90
30379;DHT22;17168;49.164;9.060;2023-02-28T13:14:29;10.50;56.00
30379;DHT22;17168;49.164;9.060;2023-02-28T13:17:11;10.90;55.90
30379;DHT22;17168;49.164;9.060;2023-02-28T13:19:46;11.00;55.50
30379;DHT22;17168;49.164;9.060;2023-02-28T13:22:39;10.90;55.30
30379;DHT22;17168;49.164;9.060;2023-02-28T13:28:57;11.30;55.10
30379;DHT22;17168;49.164;9.060;2023-02-28T13:31:31;11.70;54.90
30379;DHT22;17168;49.164;9.060;2023-02-28T13:36:38;12.30;53.80
30379;DHT22;17168;49.164;9.060;2023-02-28T13:42:22;12.20;53.70
30379;DHT22;17168;49.164;9.060;2023-02-28T13:47:50;12.50;53.70
30379;DHT22;17168;49.164;9.060;2023-02-28T13:50:30;12.70;53.60
30379;DHT22;17168;49.164;9.060;2023-02-28T13:53:24;12.80;53.30
30379;DHT22;17168;49.164;9.060;2023-02-28T13:55:59;12.80;53.10
30379;DHT22;17168;49.164;9.060;2023-02-28T13:58:43;12.80;52.70
30379;DHT22;17168;49.164;9.060;2023-02-28T14:01:23;12.90;52.70
30379;DHT22;17168;49.164;9.060;2023-02-28T14:06:51;13.00;52.40
30379;DHT22;17168;49.164;9.060;2023-02-28T14:09:27;13.10;52.20
30379;DHT22;17168;49.164;9.060;2023-02-28T14:15:03;13.30;51.60
30379;DHT22;17168;49.164;9.060;2023-02-28T14:17:37;13.30;51.60
30379;DHT22;17168;49.164;9.060;2023-02-28T14:20:14;13.30;51.40
30379;DHT22;17168;49.164;9.060;2023-02-28T14:22:54;13.40;51.30
30379;DHT22;17168;49.164;9.060;2023-02-28T14:25:33;13.50;51.40
30379;DHT22;17168;49.164;9.060;2023-02-28T14:28:10;13.60;51.30
30379;DHT22;17168;49.164;9.060;2023-02-28T14:30:52;13.50;51.40
30379;DHT22;17168;49.164;9.060;2023-02-28T14:33:31;13.40;51.30
30379;DHT22;17168;49.164;9.060;2023-02-28T14:36:11;13.40;51.30
30379;DHT22;17168;49.164;9.060;2023-02-28T14:38:51;13.40;51.10
30379;DHT22;17168;49.164;9.060;2023-02-28T14:41:30;13.40;50.90
30379;DHT22;17168;49.164;9.060;2023-02-28T14:44:13;13.40;50.80
30379;DHT22;17168;49.164;9.060;2023-02-28T14:46:47;13.30;50.50
30379;DHT22;17168;49.164;9.060;2023-02-28T14:49:23;13.20;50.50
30379;DHT22;17168;49.164;9.060;2023-02-28T14:52:09;13.10;50.40
30379;DHT22;17168;49.164;9.060;2023-02-28T14:54:52;13.00;50.30
30379;DHT22;17168;49.164;9.060;2023-02-28T14:57:26;12.90;50.30
30379;DHT22;17168;49.164;9.060;2023-02-28T15:00:01;12.80;50.20
30379;DHT22;17168;49.164;9.060;2023-02-28T15:02:34;12.70;50.00
30379;DHT22;17168;49.164;9.060;2023-02-28T15:05:26;12.60;49.90
30379;DHT22;17168;49.164;9.060;2023-02-28T15:08:12;12.50;49.80
30379;DHT22;17168;49.164;9.060;2023-02-28T15:10:52;12.40;49.90
30379;DHT22;17168;49.164;9.060;2023-02-28T15:13:31;12.30;50.00
30379;DHT22;17168;49.164;9.060;2023-02-28T15:16:10;12.30;50.00
30379;DHT22;17168;49.164;9.060;2023-02-28T15:18:47;12.30;49.90
30379;DHT22;17168;49.164;9.060;2023-02-28T15:21:22;12.20;49.70
30379;DHT22;17168;49.164;9.060;2023-02-28T15:23:59;12.10;49.90
30379;DHT22;17168;49.164;9.060;2023-02-28T15:26:39;12.00;49.80
30379;DHT22;17168;49.164;9.060;2023-02-28T15:29:14;11.80;49.70
30379;DHT22;17168;49.164;9.060;2023-02-28T15:31:49;11.60;49.80
30379;DHT22;17168;49.164;9.060;2023-02-28T15:34:30;11.40;49.80
30379;DHT22;17168;49.164;9.060;2023-02-28T15:40:14;11.10;50.00
30379;DHT22;17168;49.164;9.060;2023-02-28T15:43:04;10.90;50.00
30379;DHT22;17168;49.164;9.060;2023-02-28T15:45:39;10.70;50.00
30379;DHT22;17168;49.164;9.060;2023-02-28T15:48:17;10.60;50.20
30379;DHT22;17168;49.164;9.060;2023-02-28T15:50:51;10.40;50.20
30379;DHT22;17168;49.164;9.060;2023-02-28T15:53:25;10.30;50.30
30379;DHT22;17168;49.164;9.060;2023-02-28T15:56:00;10.10;50.30
30379;DHT22;17168;49.164;9.060;2023-02-28T15:58:36;10.00;50.40
30379;DHT22;17168;49.164;9.060;2023-02-28T16:01:19;9.90;50.50
30379;DHT22;17168;49.164;9.060;2023-02-28T16:03:53;9.80;50.50
30379;DHT22;17168;49.164;9.060;2023-02-28T16:06:40;9.60;50.60
30379;DHT22;17168;49.164;9.060;2023-02-28T16:09:15;9.50;50.60
30379;DHT22;17168;49.164;9.060;2023-02-28T16:11:50;9.40;50.70
30379;DHT22;17168;49.164;9.060;2023-02-28T16:14:26;9.30;50.80
30379;DHT22;17168;49.164;9.060;2023-02-28T16:17:03;9.20;50.90
30379;DHT22;17168;49.164;9.060;2023-02-28T16:19:36;9.10;50.90
30379;DHT22;17168;49.164;9.060;2023-02-28T16:22:08;9.00;51.00
30379;DHT22;17168;49.164;9.060;2023-02-28T16:24:40;8.90;51.00
30379;DHT22;17168;49.164;9.060;2023-02-28T16:27:15;8.80;51.10
30379;DHT22;17168;49.164;9.060;2023-02-28T16:29:58;8.70;51.20
30379;DHT22;17168;49.164;9.060;2023-02-28T16:32:32;8.60;51.30
30379;DHT22;17168;49.164;9.060;2023-02-28T16:35:08;8.50;51.30
30379;DHT22;17168;49.164;9.060;2023-02-28T16:37:41;8.40;51.30
30379;DHT22;17168;49.164;9.060;2023-02-28T16:40:15;8.30;51.40
30379;DHT22;17168;49.164;9.060;2023-02-28T16:42:49;8.30;51.60
30379;DHT22;17168;49.164;9.060;2023-02-28T16:45:26;8.20;51.60
30379;DHT22;17168;49.164;9.060;2023-02-28T16:47:58;8.10;51.70
30379;DHT22;17168;49.164;9.060;2023-02-28T16:50:31;8.00;51.70
30379;DHT22;17168;49.164;9.060;2023-02-28T16:53:05;7.90;51.80
30379;DHT22;17168;49.164;9.060;2023-02-28T16:55:37;7.80;51.90
30379;DHT22;17168;49.164;9.060;2023-02-28T16:58:14;7.80;51.90
30379;DHT22;17168;49.164;9.060;2023-02-28T17:00:49;7.70;52.00
30379;DHT22;17168;49.164;9.060;2023-02-28T17:03:23;7.60;52.10
30379;DHT22;17168;49.164;9.060;2023-02-28T17:06:05;7.50;52.10
30379;DHT22;17168;49.164;9.060;2023-02-28T17:08:37;7.40;52.20